Archival Weather

Chicago O'Hare International

Chicago, Illinois (KORD)

Report from: Wednesday, February 1, 2023 8:51 AM CST
Current time: Tuesday, July 16, 2024 5:00 AM CDT

Current weather – Weather history – Daily summaries
Weather forecast

Temperature-10.0°C (14.0°F)
Wind chill-17.5°C (0.4°F)
Dew point-17.8°C (-0.0°F)
Winds 10 kts (5.1 m/s, 11.5 mph) Southwest (220°)
Wind gusts 18 kts (9.3 m/s, 20.7 mph)
Visibility10 mi. (16.1 km)
Clouds Few clouds 25,000 ft. (7,620 m)
Altimeter30.34 in.Hg (1027 mB)
Relative humidity53 %
Density altitude-3,636 ft. (-1,108 m)
Sea-level pressure102.9 kPa (1029 mB, 30.39 in.Hg)
Remarks Automated weather observing station with precipitation discriminator
Pressure rising more quickly
Flight conditions Visual Meteorological Conditions
Raw dataKORD 011451Z 22010G18KT 10SM FEW250 M10/M18 A3034 RMK AO2 SLP290 T11001178 53004
An error has occurred. This application may no longer respond until reloaded. Reload 🗙